Time;durP1;ratioP1;P1;durP2;ratioP2;P2;SDS_P1;SDS_P2;PMS_P1;PMS_P2;Temp;Humidity;BMP_temperature;BMP_pressure;BME280_temperature;BME280_humidity;BME280_pressure;Samples;Min_cycle;Max_cycle;Signal;HPM_P1;HPM_P2
2023/10/12 00:01:57;;;;;;;29.27;16.35;;;;;;;;;;5079146;28;20083;-60
2023/10/12 00:04:35;;;;;;;33.28;17.10;;;;;;;;;;5083027;28;20053;-60
2023/10/12 00:07:25;;;;;;;30.88;16.58;;;;;;;;;;5069455;28;20521;-60
2023/10/12 00:10:12;;;;;;;31.58;16.60;;;;;;;;;;5063047;28;20061;-60
2023/10/12 00:12:44;;;;;;;29.75;16.05;;;;;;;;;;5063219;28;20598;-60
2023/10/12 00:17:52;;;;;;;30.95;16.95;;;;;;;;;;5084062;28;20056;-58
2023/10/12 00:22:58;;;;;;;32.25;17.88;;;;;;;;;;5083583;28;20059;-61
2023/10/12 00:25:25;;;;;;;32.20;18.20;;;;;;;;;;5082988;28;20052;-60
2023/10/12 00:27:52;;;;;;;33.80;17.45;;;;;;;;;;5083428;28;20056;-60
2023/10/12 00:30:19;;;;;;;33.97;16.60;;;;;;;;;;5082140;28;20151;-59
2023/10/12 00:32:45;;;;;;;40.17;19.13;;;;;;;;;;5081644;28;20060;-61
2023/10/12 00:35:14;;;;;;;33.78;19.02;;;;;;;;;;5083309;28;20414;-61
2023/10/12 00:37:43;;;;;;;30.05;18.20;;;;;;;;;;5083286;28;20078;-59
2023/10/12 00:40:32;;;;;;;28.48;16.67;;;;;;;;;;5083222;28;20520;-61
2023/10/12 00:43:00;;;;;;;27.98;17.02;;;;;;;;;;5082411;28;20110;-60
2023/10/12 00:45:30;;;;;;;29.88;18.20;;;;;;;;;;5081067;28;20140;-57
2023/10/12 00:48:16;;;;;;;29.98;17.52;;;;;;;;;;5083147;28;20345;-60
2023/10/12 00:50:47;;;;;;;33.17;17.52;;;;;;;;;;5081314;28;20530;-60
2023/10/12 00:53:22;;;;;;;30.48;16.92;;;;;;;;;;5083218;28;20052;-61
2023/10/12 00:55:50;;;;;;;34.75;17.45;;;;;;;;;;5082976;28;20143;-55
2023/10/12 00:58:17;;;;;;;32.90;19.05;;;;;;;;;;5083212;28;20140;-60
2023/10/12 01:00:51;;;;;;;31.15;17.73;;;;;;;;;;5082919;28;20044;-59
2023/10/12 01:06:12;;;;;;;27.45;13.05;;;;;;;;;;5078508;28;20049;-60
2023/10/12 01:08:43;;;;;;;20.08;10.30;;;;;;;;;;5075607;28;20612;-61
2023/10/12 01:11:17;;;;;;;15.85;7.82;;;;;;;;;;5066136;28;20057;-60
2023/10/12 01:13:49;;;;;;;20.30;8.83;;;;;;;;;;5065976;28;20103;-59
2023/10/12 01:16:22;;;;;;;17.80;8.93;;;;;;;;;;5066114;28;20351;-61
2023/10/12 01:18:51;;;;;;;14.50;7.95;;;;;;;;;;5066310;28;20057;-59
2023/10/12 01:21:17;;;;;;;14.35;8.20;;;;;;;;;;5066508;28;20132;-60
2023/10/12 01:23:50;;;;;;;16.80;8.20;;;;;;;;;;5066591;28;20522;-60
2023/10/12 01:26:18;;;;;;;18.90;8.13;;;;;;;;;;5067545;28;20567;-58
2023/10/12 01:28:49;;;;;;;16.10;9.40;;;;;;;;;;5065525;28;20144;-59
2023/10/12 01:31:28;;;;;;;15.00;7.97;;;;;;;;;;5065816;28;20061;-60
2023/10/12 01:33:55;;;;;;;13.75;8.15;;;;;;;;;;5065770;28;20045;-59
2023/10/12 01:36:23;;;;;;;19.38;6.28;;;;;;;;;;5066197;28;20049;-60
2023/10/12 01:39:02;;;;;;;13.55;6.47;;;;;;;;;;5065907;28;20549;-60
2023/10/12 01:41:28;;;;;;;8.30;4.03;;;;;;;;;;5065155;28;20060;-57
2023/10/12 01:43:55;;;;;;;6.57;3.83;;;;;;;;;;5065789;28;20132;-59
2023/10/12 01:46:25;;;;;;;6.88;2.63;;;;;;;;;;5081471;28;20057;-59
2023/10/12 01:48:52;;;;;;;4.10;2.45;;;;;;;;;;5065562;28;20171;-59
2023/10/12 01:51:25;;;;;;;2.75;1.73;;;;;;;;;;5080486;28;20056;-59
2023/10/12 01:53:55;;;;;;;4.45;1.33;;;;;;;;;;5085429;28;20581;-59
2023/10/12 01:56:27;;;;;;;7.30;1.30;;;;;;;;;;5085049;28;20052;-59
2023/10/12 01:58:54;;;;;;;4.18;1.52;;;;;;;;;;5085842;28;20088;-58
2023/10/12 02:01:21;;;;;;;3.40;1.50;;;;;;;;;;5084290;28;20514;-60
2023/10/12 02:03:54;;;;;;;4.03;1.10;;;;;;;;;;5085597;28;20056;-59
2023/10/12 02:06:28;;;;;;;2.63;1.60;;;;;;;;;;5085467;28;20053;-59
2023/10/12 02:08:59;;;;;;;1.63;1.15;;;;;;;;;;5071427;28;20045;-59
2023/10/12 02:11:37;;;;;;;2.80;1.25;;;;;;;;;;5064960;28;20063;-59
2023/10/12 02:14:05;;;;;;;7.15;2.00;;;;;;;;;;5065404;28;20061;-59
2023/10/12 02:16:37;;;;;;;3.15;1.70;;;;;;;;;;5073147;28;20115;-58
2023/10/12 02:19:08;;;;;;;3.35;1.45;;;;;;;;;;5084821;28;20157;-59
2023/10/12 02:21:37;;;;;;;4.55;2.00;;;;;;;;;;5085002;28;20198;-59
2023/10/12 02:26:36;;;;;;;5.10;1.30;;;;;;;;;;5084755;28;20064;-59
2023/10/12 02:31:39;;;;;;;4.15;1.42;;;;;;;;;;5085136;28;20053;-59
2023/10/12 02:34:06;;;;;;;5.13;1.70;;;;;;;;;;5085460;28;20518;-59
2023/10/12 02:36:32;;;;;;;4.07;1.45;;;;;;;;;;5084120;28;20086;-59
2023/10/12 02:39:10;;;;;;;1.48;1.08;;;;;;;;;;5085625;28;20095;-59
2023/10/12 02:41:37;;;;;;;3.13;0.93;;;;;;;;;;5084497;28;20098;-58
2023/10/12 02:44:14;;;;;;;2.38;0.95;;;;;;;;;;5066197;28;20060;-58
2023/10/12 02:46:59;;;;;;;2.33;1.20;;;;;;;;;;5064372;28;20057;-59
2023/10/12 02:49:26;;;;;;;1.45;0.80;;;;;;;;;;5064590;28;20053;-58
2023/10/12 02:51:53;;;;;;;0.93;0.90;;;;;;;;;;5065210;28;20427;-58
2023/10/12 02:54:25;;;;;;;1.50;0.90;;;;;;;;;;5064038;28;20606;-58
2023/10/12 02:56:56;;;;;;;2.08;1.20;;;;;;;;;;5064363;28;20140;-58
2023/10/12 02:59:25;;;;;;;3.63;0.80;;;;;;;;;;5064952;28;20118;-57
2023/10/12 03:02:12;;;;;;;3.08;1.10;;;;;;;;;;5064500;28;20494;-58
2023/10/12 03:04:39;;;;;;;3.35;1.17;;;;;;;;;;5084186;28;20062;-58
2023/10/12 03:07:12;;;;;;;1.77;1.13;;;;;;;;;;5068335;28;20488;-58
2023/10/12 03:09:44;;;;;;;1.88;1.13;;;;;;;;;;5063855;28;20599;-59
2023/10/12 03:12:11;;;;;;;2.83;1.10;;;;;;;;;;5064437;28;20057;-58
2023/10/12 03:14:40;;;;;;;2.88;1.52;;;;;;;;;;5064858;28;20088;-58
2023/10/12 03:17:09;;;;;;;1.55;1.30;;;;;;;;;;5064672;28;20210;-59
2023/10/12 03:19:36;;;;;;;3.15;1.10;;;;;;;;;;5064174;28;20534;-59
2023/10/12 03:22:23;;;;;;;3.92;1.25;;;;;;;;;;5064099;28;20530;-59
2023/10/12 03:24:51;;;;;;;3.40;1.55;;;;;;;;;;5063476;28;20059;-59
2023/10/12 03:27:19;;;;;;;3.80;1.50;;;;;;;;;;5064338;28;20057;-59
2023/10/12 03:29:54;;;;;;;2.95;1.67;;;;;;;;;;5063723;28;20648;-60
2023/10/12 03:32:23;;;;;;;2.80;1.63;;;;;;;;;;5084334;28;20057;-60
2023/10/12 03:37:40;;;;;;;3.35;1.63;;;;;;;;;;5084199;28;20118;-57
2023/10/12 03:40:49;;;;;;;2.88;1.95;;;;;;;;;;5084404;28;20059;-57
2023/10/12 03:42:55;;;;;;;1.88;1.52;;;;;;;;;;5078974;28;20222;-60
2023/10/12 03:45:33;;;;;;;4.25;2.25;;;;;;;;;;5071951;28;20049;-60
2023/10/12 03:48:04;;;;;;;4.15;2.00;;;;;;;;;;5063689;28;20053;-59
2023/10/12 03:50:36;;;;;;;6.05;2.28;;;;;;;;;;5063771;28;20053;-59
2023/10/12 03:53:05;;;;;;;5.13;1.90;;;;;;;;;;5079932;28;20053;-59
2023/10/12 03:55:34;;;;;;;3.55;2.35;;;;;;;;;;5084060;28;20056;-58
2023/10/12 03:58:06;;;;;;;2.92;2.28;;;;;;;;;;5084202;28;20340;-58
2023/10/12 04:03:35;;;;;;;5.38;2.97;;;;;;;;;;5070785;28;20523;-58
2023/10/12 04:06:14;;;;;;;4.45;3.15;;;;;;;;;;5083386;28;20052;-59
2023/10/12 04:08:45;;;;;;;3.63;2.63;;;;;;;;;;5083614;28;20060;-59
2023/10/12 04:12:04;;;;;;;4.57;2.60;;;;;;;;;;5067817;28;20185;-58
2023/10/12 04:16:47;;;;;;;3.00;2.05;;;;;;;;;;5081878;28;20527;-59
2023/10/12 04:19:29;;;;;;;4.95;2.40;;;;;;;;;;5083904;28;20072;-59
2023/10/12 04:22:15;;;;;;;3.08;2.17;;;;;;;;;;5082847;28;20661;-59
2023/10/12 04:24:45;;;;;;;3.90;2.25;;;;;;;;;;5083693;28;20105;-58
2023/10/12 04:30:03;;;;;;;1.77;1.58;;;;;;;;;;5081840;28;20056;-59
2023/10/12 04:32:51;;;;;;;1.55;1.45;;;;;;;;;;5082835;28;20140;-59
2023/10/12 04:35:41;;;;;;;1.77;1.30;;;;;;;;;;5098746;28;20059;-59
2023/10/12 04:44:02;;;;;;;1.50;1.23;;;;;;;;;;5036747;28;20065;-60
2023/10/12 04:46:38;;;;;;;1.40;1.30;;;;;;;;;;5039796;28;20064;-59
2023/10/12 04:51:50;;;;;;;3.70;1.48;;;;;;;;;;5036744;28;20149;-60
2023/10/12 04:54:28;;;;;;;2.38;1.75;;;;;;;;;;5034267;28;20088;-59
2023/10/12 04:59:26;;;;;;;5.60;2.60;;;;;;;;;;5039089;28;20057;-60
2023/10/12 05:04:38;;;;;;;4.40;2.55;;;;;;;;;;5038991;28;20629;-58
2023/10/12 05:09:49;;;;;;;2.92;1.83;;;;;;;;;;5040336;28;20107;-59
2023/10/12 05:12:15;;;;;;;2.70;1.63;;;;;;;;;;5039896;28;20583;-60
2023/10/12 05:14:42;;;;;;;2.30;1.60;;;;;;;;;;5039275;28;20123;-61
2023/10/12 05:17:08;;;;;;;2.30;1.77;;;;;;;;;;5053886;28;20602;-60
2023/10/12 05:19:35;;;;;;;4.13;1.50;;;;;;;;;;5067737;28;20057;-60
2023/10/12 05:22:02;;;;;;;1.30;1.17;;;;;;;;;;5083249;28;20063;-59
2023/10/12 05:24:29;;;;;;;2.65;1.65;;;;;;;;;;5082467;28;20052;-58
2023/10/12 05:27:08;;;;;;;2.58;2.00;;;;;;;;;;5070106;28;20057;-58
2023/10/12 05:29:38;;;;;;;6.75;2.10;;;;;;;;;;5069495;28;20143;-58
2023/10/12 05:32:18;;;;;;;3.38;1.98;;;;;;;;;;5083062;28;20063;-59
2023/10/12 05:34:46;;;;;;;3.35;1.83;;;;;;;;;;5081833;28;20049;-59
2023/10/12 05:39:55;;;;;;;5.30;2.17;;;;;;;;;;5082213;28;20135;-59
2023/10/12 05:42:22;;;;;;;4.25;1.85;;;;;;;;;;5080744;28;20477;-59
2023/10/12 05:44:49;;;;;;;4.72;1.80;;;;;;;;;;5074769;28;20084;-57
2023/10/12 05:47:18;;;;;;;4.95;1.42;;;;;;;;;;5068912;28;20053;-59
2023/10/12 05:49:45;;;;;;;2.10;1.58;;;;;;;;;;5068394;28;20370;-58
2023/10/12 05:52:13;;;;;;;10.05;1.45;;;;;;;;;;5077453;28;20056;-57
2023/10/12 05:54:39;;;;;;;3.47;2.20;;;;;;;;;;5068682;28;20356;-58
2023/10/12 05:57:27;;;;;;;4.38;2.00;;;;;;;;;;5082490;28;20106;-59
2023/10/12 05:59:58;;;;;;;5.10;2.22;;;;;;;;;;5076809;28;20067;-58
2023/10/12 06:02:28;;;;;;;4.90;2.22;;;;;;;;;;5084170;28;20052;-59
2023/10/12 06:04:54;;;;;;;5.68;2.00;;;;;;;;;;5083221;28;20056;-58
2023/10/12 06:07:22;;;;;;;4.53;1.90;;;;;;;;;;5080521;28;20052;-58
2023/10/12 06:09:52;;;;;;;4.97;2.22;;;;;;;;;;5071434;28;20069;-59
2023/10/12 06:12:24;;;;;;;4.78;2.20;;;;;;;;;;5084462;28;20060;-59
2023/10/12 06:14:53;;;;;;;3.97;2.40;;;;;;;;;;5072659;28;20053;-59
2023/10/12 06:17:30;;;;;;;3.45;1.85;;;;;;;;;;5069404;28;20171;-59
2023/10/12 06:20:01;;;;;;;4.63;1.92;;;;;;;;;;5091912;28;20056;-59
2023/10/12 06:22:32;;;;;;;4.10;1.90;;;;;;;;;;5083991;28;20060;-59
2023/10/12 06:25:04;;;;;;;2.85;1.88;;;;;;;;;;5083674;28;20521;-59
2023/10/12 06:27:34;;;;;;;4.25;1.90;;;;;;;;;;5084249;28;20080;-59
2023/10/12 06:30:17;;;;;;;8.82;2.60;;;;;;;;;;5081296;28;20449;-59
2023/10/12 06:32:47;;;;;;;7.03;2.67;;;;;;;;;;5083166;28;20491;-59
2023/10/12 06:37:59;;;;;;;5.60;3.15;;;;;;;;;;5083446;28;20145;-59
2023/10/12 06:40:37;;;;;;;7.57;2.83;;;;;;;;;;5080153;28;20511;-59
2023/10/12 06:45:51;;;;;;;4.07;2.08;;;;;;;;;;5083767;28;20060;-59
2023/10/12 06:51:03;;;;;;;3.42;2.30;;;;;;;;;;5076414;28;20049;-59
2023/10/12 06:53:34;;;;;;;3.50;2.08;;;;;;;;;;5083041;28;20060;-60
2023/10/12 07:04:18;;;;;;;4.35;2.80;;;;;;;;;;5066487;28;20472;-59
2023/10/12 07:07:07;;;;;;;5.80;2.85;;;;;;;;;;5102182;27;20047;-59
2023/10/12 07:09:42;;;;;;;4.50;2.92;;;;;;;;;;5083813;28;20083;-59
2023/10/12 07:12:08;;;;;;;5.15;3.70;;;;;;;;;;5084220;27;20052;-59
2023/10/12 07:14:42;;;;;;;5.95;4.00;;;;;;;;;;5076408;28;20060;-58
2023/10/12 07:17:10;;;;;;;6.18;3.92;;;;;;;;;;5083285;28;20519;-59
2023/10/12 07:19:40;;;;;;;6.70;4.55;;;;;;;;;;5083342;28;20076;-59
2023/10/12 07:22:15;;;;;;;7.88;4.20;;;;;;;;;;5084307;27;20063;-57
2023/10/12 07:24:42;;;;;;;5.63;4.13;;;;;;;;;;5082748;28;20458;-59
2023/10/12 07:27:13;;;;;;;5.30;3.72;;;;;;;;;;5081622;28;20267;-59
2023/10/12 07:29:44;;;;;;;4.18;3.50;;;;;;;;;;5079692;28;20056;-60
2023/10/12 07:34:54;;;;;;;4.85;2.88;;;;;;;;;;5080466;28;20053;-58
2023/10/12 07:37:20;;;;;;;5.38;3.35;;;;;;;;;;5079244;28;20578;-59
2023/10/12 07:39:50;;;;;;;5.82;3.42;;;;;;;;;;5081582;28;20162;-59
2023/10/12 07:42:25;;;;;;;4.25;2.95;;;;;;;;;;5079640;28;20567;-59
2023/10/12 07:44:56;;;;;;;4.43;2.55;;;;;;;;;;5082193;28;20056;-59
2023/10/12 07:47:40;;;;;;;7.40;3.22;;;;;;;;;;5082585;28;20529;-60
2023/10/12 07:50:12;;;;;;;9.68;2.70;;;;;;;;;;5082377;28;20131;-59
2023/10/12 07:52:46;;;;;;;5.43;2.60;;;;;;;;;;5074700;28;20739;-59
2023/10/12 07:55:15;;;;;;;6.38;3.00;;;;;;;;;;5070996;28;20106;-59
2023/10/12 07:57:42;;;;;;;6.93;3.33;;;;;;;;;;5083147;28;20339;-59
2023/10/12 08:13:25;;;;;;;3.60;1.85;;;;;;;;;;5081175;28;20139;-58
2023/10/12 08:21:23;;;;;;;2.92;1.80;;;;;;;;;;5078518;28;20138;-59
2023/10/12 08:23:56;;;;;;;3.45;2.03;;;;;;;;;;5081642;28;20139;-60
2023/10/12 08:32:11;;;;;;;3.00;1.80;;;;;;;;;;5079908;28;20499;-59
2023/10/12 08:39:39;;;;;;;2.80;1.60;;;;;;;;;;5081271;28;20143;-59
2023/10/12 08:44:49;;;;;;;4.65;2.15;;;;;;;;;;5085403;28;20103;-59
2023/10/12 08:48:01;;;;;;;9.05;2.90;;;;;;;;;;5088229;27;20130;-59
2023/10/12 08:52:40;;;;;;;4.57;2.70;;;;;;;;;;5080332;28;20063;-59
2023/10/12 08:57:43;;;;;;;8.63;2.72;;;;;;;;;;5100948;28;20133;-57
2023/10/12 09:00:23;;;;;;;3.85;2.67;;;;;;;;;;5086440;27;20053;-59
2023/10/12 09:02:53;;;;;;;2.80;2.30;;;;;;;;;;5077672;28;20056;-60
2023/10/12 09:05:24;;;;;;;4.70;2.50;;;;;;;;;;5081459;28;20499;-58
2023/10/12 09:08:07;;;;;;;4.15;2.63;;;;;;;;;;5081538;28;20146;-59
2023/10/12 09:10:51;;;;;;;4.35;2.35;;;;;;;;;;5077377;28;20129;-59
2023/10/12 09:13:19;;;;;;;5.97;2.72;;;;;;;;;;5081998;28;20053;-59
2023/10/12 09:15:46;;;;;;;3.03;2.38;;;;;;;;;;5083734;28;20124;-59
2023/10/12 09:18:14;;;;;;;4.20;2.55;;;;;;;;;;5092731;27;20053;-60
2023/10/12 09:20:45;;;;;;;2.95;2.45;;;;;;;;;;5080085;28;20049;-59
2023/10/12 09:23:13;;;;;;;4.45;2.40;;;;;;;;;;5080315;28;20136;-60
2023/10/12 09:26:11;;;;;;;4.63;3.03;;;;;;;;;;5080838;28;20063;-60
2023/10/12 09:31:26;;;;;;;2.72;2.28;;;;;;;;;;5084481;28;20056;-59
2023/10/12 09:36:53;;;;;;;3.53;2.00;;;;;;;;;;5082674;28;20316;-59
2023/10/12 09:39:27;;;;;;;6.07;2.00;;;;;;;;;;5083577;28;20134;-60
2023/10/12 09:42:09;;;;;;;3.47;2.42;;;;;;;;;;5084239;28;20896;-59
2023/10/12 09:44:39;;;;;;;5.82;2.47;;;;;;;;;;5085726;28;20134;-60
2023/10/12 09:47:11;;;;;;;4.32;2.50;;;;;;;;;;5091082;28;20513;-60
2023/10/12 09:49:44;;;;;;;3.85;2.47;;;;;;;;;;5080167;28;20056;-57
2023/10/12 09:52:13;;;;;;;2.88;2.22;;;;;;;;;;5090391;28;20048;-57
2023/10/12 09:54:48;;;;;;;2.45;2.25;;;;;;;;;;5067409;28;20052;-59
2023/10/12 09:57:27;;;;;;;3.72;2.97;;;;;;;;;;5097371;27;20498;-59
2023/10/12 09:59:59;;;;;;;2.20;2.00;;;;;;;;;;5088449;27;20052;-58
2023/10/12 10:02:30;;;;;;;4.25;2.60;;;;;;;;;;5079246;28;20100;-57
2023/10/12 10:05:01;;;;;;;4.22;2.70;;;;;;;;;;5085252;28;20152;-59
2023/10/12 10:07:36;;;;;;;3.72;2.88;;;;;;;;;;5092621;28;20530;-58
2023/10/12 10:10:05;;;;;;;4.07;2.53;;;;;;;;;;5084115;28;20083;-59
2023/10/12 10:12:42;;;;;;;2.90;2.30;;;;;;;;;;5088195;28;20130;-59
2023/10/12 10:15:20;;;;;;;1.88;1.60;;;;;;;;;;5075589;28;20891;-59
2023/10/12 10:17:53;;;;;;;2.47;1.90;;;;;;;;;;5084098;28;20095;-58
2023/10/12 10:22:57;;;;;;;5.63;1.92;;;;;;;;;;5081197;28;20088;-60
2023/10/12 10:25:28;;;;;;;3.03;2.25;;;;;;;;;;5083722;28;20053;-58
2023/10/12 10:27:56;;;;;;;1.95;1.73;;;;;;;;;;5095313;28;20052;-58
2023/10/12 10:30:28;;;;;;;3.30;1.98;;;;;;;;;;5084100;28;20067;-59
2023/10/12 10:33:15;;;;;;;1.90;1.75;;;;;;;;;;5083895;28;20537;-57
2023/10/12 10:35:57;;;;;;;2.20;2.00;;;;;;;;;;5069512;28;20053;-59
2023/10/12 10:38:30;;;;;;;2.80;2.13;;;;;;;;;;5068663;28;20088;-58
2023/10/12 10:41:05;;;;;;;2.20;2.00;;;;;;;;;;5069768;28;20052;-59
2023/10/12 10:43:38;;;;;;;3.55;2.22;;;;;;;;;;5098081;27;20185;-59
2023/10/12 10:46:06;;;;;;;3.80;2.13;;;;;;;;;;5083925;28;20526;-59
2023/10/12 10:48:38;;;;;;;2.40;2.03;;;;;;;;;;5082833;28;20062;-59
2023/10/12 10:51:32;;;;;;;4.45;2.40;;;;;;;;;;5072660;28;20063;-59
2023/10/12 10:53:59;;;;;;;3.55;1.90;;;;;;;;;;5079455;28;20056;-59
2023/10/12 10:56:37;;;;;;;2.50;2.20;;;;;;;;;;5081822;28;20629;-59
2023/10/12 10:59:06;;;;;;;7.90;2.17;;;;;;;;;;5065993;28;20064;-57
2023/10/12 11:01:33;;;;;;;2.40;2.20;;;;;;;;;;5070712;28;20099;-59
2023/10/12 11:04:01;;;;;;;2.55;2.35;;;;;;;;;;5082992;28;20057;-59
2023/10/12 11:06:28;;;;;;;2.95;2.63;;;;;;;;;;5080076;28;20056;-59
2023/10/12 11:09:14;;;;;;;2.78;2.22;;;;;;;;;;5072458;28;20064;-59
2023/10/12 11:11:52;;;;;;;4.20;2.80;;;;;;;;;;5069862;28;20053;-59
2023/10/12 11:14:22;;;;;;;2.90;2.60;;;;;;;;;;5082091;28;20502;-57
2023/10/12 11:16:48;;;;;;;3.45;3.03;;;;;;;;;;5081892;28;20052;-58
2023/10/12 11:19:19;;;;;;;5.68;2.55;;;;;;;;;;5082552;28;20348;-59
2023/10/12 11:21:46;;;;;;;3.20;2.67;;;;;;;;;;5080614;28;20079;-56
2023/10/12 11:24:14;;;;;;;4.15;3.00;;;;;;;;;;5083921;28;20059;-59
2023/10/12 11:26:54;;;;;;;4.75;3.03;;;;;;;;;;5081357;28;20056;-58
2023/10/12 11:29:22;;;;;;;6.97;3.95;;;;;;;;;;5082668;28;20115;-60
2023/10/12 11:32:16;;;;;;;7.53;4.75;;;;;;;;;;5083418;28;20075;-58
2023/10/12 11:34:44;;;;;;;3.70;3.40;;;;;;;;;;5083240;28;20139;-60
2023/10/12 11:37:13;;;;;;;4.85;3.47;;;;;;;;;;5081430;28;20059;-59
2023/10/12 11:39:43;;;;;;;4.78;3.78;;;;;;;;;;5079752;28;20048;-58
2023/10/12 11:42:13;;;;;;;5.35;4.07;;;;;;;;;;5078073;27;20135;-59
2023/10/12 11:44:44;;;;;;;5.40;3.55;;;;;;;;;;5080409;28;20086;-59
2023/10/12 11:47:16;;;;;;;5.40;3.85;;;;;;;;;;5080097;28;20056;-58
2023/10/12 11:49:55;;;;;;;8.48;4.15;;;;;;;;;;5081499;28;20051;-58
2023/10/12 11:52:29;;;;;;;5.25;4.00;;;;;;;;;;5071260;28;20594;-58
2023/10/12 11:55:00;;;;;;;9.10;4.55;;;;;;;;;;5078214;28;20195;-58
2023/10/12 11:57:27;;;;;;;6.60;3.65;;;;;;;;;;5082257;28;20053;-57
2023/10/12 11:59:53;;;;;;;6.35;4.50;;;;;;;;;;5082036;28;20059;-58
2023/10/12 12:02:22;;;;;;;5.55;4.70;;;;;;;;;;5082207;28;20049;-58
2023/10/12 12:04:50;;;;;;;6.03;4.60;;;;;;;;;;5081434;28;20513;-56
2023/10/12 12:07:33;;;;;;;7.38;4.45;;;;;;;;;;5088972;27;20537;-59
2023/10/12 12:10:01;;;;;;;8.65;4.70;;;;;;;;;;5071857;28;20404;-58
2023/10/12 12:12:28;;;;;;;6.43;4.78;;;;;;;;;;5080711;28;20095;-58
2023/10/12 12:14:54;;;;;;;7.60;5.15;;;;;;;;;;5082362;28;20072;-58
2023/10/12 12:17:21;;;;;;;8.65;5.90;;;;;;;;;;5088103;28;20052;-59
2023/10/12 12:19:47;;;;;;;7.75;6.20;;;;;;;;;;5082496;28;20092;-58
2023/10/12 12:22:14;;;;;;;8.30;6.00;;;;;;;;;;5081360;28;20532;-58
2023/10/12 12:24:44;;;;;;;13.80;5.70;;;;;;;;;;5078627;28;20507;-58
2023/10/12 12:29:57;;;;;;;6.32;5.38;;;;;;;;;;5080633;28;20487;-58
2023/10/12 12:32:43;;;;;;;8.05;6.10;;;;;;;;;;5081254;28;20968;-57
2023/10/12 12:35:10;;;;;;;9.23;5.53;;;;;;;;;;5080037;28;20056;-58
2023/10/12 12:37:38;;;;;;;9.70;5.55;;;;;;;;;;5088295;28;20147;-57
2023/10/12 12:42:49;;;;;;;7.47;5.50;;;;;;;;;;5078713;28;20056;-57
2023/10/12 12:45:16;;;;;;;9.95;6.55;;;;;;;;;;5081758;28;20126;-58
2023/10/12 12:47:43;;;;;;;9.80;6.70;;;;;;;;;;5082435;28;20052;-56
2023/10/12 12:50:09;;;;;;;10.27;6.18;;;;;;;;;;5081364;28;20059;-58
2023/10/12 12:52:40;;;;;;;11.18;6.82;;;;;;;;;;5078579;28;20452;-56
2023/10/12 12:55:16;;;;;;;10.45;6.68;;;;;;;;;;5080884;28;20052;-56
2023/10/12 12:57:43;;;;;;;14.85;6.47;;;;;;;;;;5086978;28;20065;-58
2023/10/12 13:00:10;;;;;;;11.55;6.78;;;;;;;;;;5081712;27;20267;-59
2023/10/12 13:02:37;;;;;;;8.63;6.70;;;;;;;;;;5079420;28;20075;-58
2023/10/12 13:05:05;;;;;;;11.77;7.53;;;;;;;;;;5081434;28;20045;-58
2023/10/12 13:07:31;;;;;;;10.30;7.13;;;;;;;;;;5081523;28;20053;-57
2023/10/12 13:09:59;;;;;;;12.95;8.30;;;;;;;;;;5081375;28;20095;-59
2023/10/12 13:12:25;;;;;;;9.93;7.38;;;;;;;;;;5080626;28;20057;-58
2023/10/12 13:14:52;;;;;;;24.48;7.90;;;;;;;;;;5081462;28;20527;-57
2023/10/12 13:17:18;;;;;;;18.88;7.72;;;;;;;;;;5077482;28;20518;-59
2023/10/12 13:19:45;;;;;;;13.00;7.07;;;;;;;;;;5081529;28;20078;-60
2023/10/12 13:22:11;;;;;;;13.35;7.25;;;;;;;;;;5081034;28;20072;-58
2023/10/12 13:24:38;;;;;;;13.32;7.53;;;;;;;;;;5073465;28;20467;-59
2023/10/12 13:27:08;;;;;;;13.45;7.32;;;;;;;;;;5081210;28;20473;-60
2023/10/12 13:29:35;;;;;;;13.90;8.40;;;;;;;;;;5069933;28;20060;-60
2023/10/12 13:32:05;;;;;;;15.57;8.90;;;;;;;;;;5079339;28;20049;-57
2023/10/12 13:34:33;;;;;;;14.02;8.52;;;;;;;;;;5081585;28;20059;-60
2023/10/12 13:37:00;;;;;;;19.45;9.63;;;;;;;;;;5081012;28;20597;-59
2023/10/12 13:39:30;;;;;;;17.08;9.57;;;;;;;;;;5081566;28;20048;-56
2023/10/12 13:41:57;;;;;;;18.25;9.80;;;;;;;;;;5080524;28;20053;-59
2023/10/12 13:44:25;;;;;;;19.90;10.55;;;;;;;;;;5080184;28;20514;-58
2023/10/12 13:46:52;;;;;;;18.17;9.48;;;;;;;;;;5080413;28;20110;-57
2023/10/12 13:49:22;;;;;;;18.50;11.18;;;;;;;;;;5081380;28;20119;-57
2023/10/12 13:51:49;;;;;;;15.00;9.13;;;;;;;;;;5080819;28;20063;-57
2023/10/12 13:54:17;;;;;;;16.88;9.30;;;;;;;;;;5080029;28;20145;-60
2023/10/12 13:56:48;;;;;;;19.42;10.50;;;;;;;;;;5081678;28;20049;-59
2023/10/12 13:59:16;;;;;;;15.68;9.55;;;;;;;;;;5081501;28;20063;-59
2023/10/12 14:01:42;;;;;;;16.02;10.57;;;;;;;;;;5079997;28;20059;-58
2023/10/12 14:07:00;;;;;;;21.75;12.05;;;;;;;;;;5081783;28;20052;-59
2023/10/12 14:09:31;;;;;;;17.30;10.38;;;;;;;;;;5076904;28;20063;-58
2023/10/12 14:11:58;;;;;;;27.33;11.52;;;;;;;;;;5081835;28;20148;-58
2023/10/12 14:14:25;;;;;;;20.58;12.60;;;;;;;;;;5080018;28;20578;-58
2023/10/12 14:16:53;;;;;;;19.40;11.98;;;;;;;;;;5088450;28;20106;-59
2023/10/12 14:19:23;;;;;;;20.98;11.75;;;;;;;;;;5084302;28;20531;-59
2023/10/12 14:21:53;;;;;;;24.95;13.98;;;;;;;;;;5074191;28;20186;-58
2023/10/12 14:24:23;;;;;;;22.02;12.50;;;;;;;;;;5083218;28;20151;-58
2023/10/12 14:26:51;;;;;;;25.95;12.10;;;;;;;;;;5082854;28;20650;-58
2023/10/12 14:29:18;;;;;;;16.88;12.10;;;;;;;;;;5072764;28;20053;-59
2023/10/12 14:31:45;;;;;;;16.65;10.63;;;;;;;;;;5082653;28;20051;-59
2023/10/12 14:34:13;;;;;;;17.23;11.60;;;;;;;;;;5081231;28;20056;-56
2023/10/12 14:36:41;;;;;;;18.95;11.45;;;;;;;;;;5082169;28;20102;-57
2023/10/12 15:02:57;;;;;;;;;;;;;;;;;;5128887;27;20384;-54
2023/10/12 15:05:27;;;;;;;12.75;9.38;;;;;;;;;;5138056;27;46062;-55
2023/10/12 15:07:55;;;;;;;16.65;10.32;;;;;;;;;;5141052;27;20061;-54
2023/10/12 15:10:21;;;;;;;13.30;9.52;;;;;;;;;;5139719;27;20051;-53
2023/10/12 15:12:48;;;;;;;10.68;7.88;;;;;;;;;;5139488;27;20516;-56
2023/10/12 15:15:18;;;;;;;10.23;6.78;;;;;;;;;;5137135;27;20489;-56
2023/10/12 15:17:45;;;;;;;8.18;7.25;;;;;;;;;;5120509;27;20105;-57
2023/10/12 15:20:15;;;;;;;10.05;6.85;;;;;;;;;;5121448;27;20059;-54
2023/10/12 15:22:44;;;;;;;9.00;6.45;;;;;;;;;;5130661;27;20055;-57
2023/10/12 15:25:12;;;;;;;8.20;6.05;;;;;;;;;;5138332;27;20052;-55
2023/10/12 15:27:39;;;;;;;7.68;6.28;;;;;;;;;;5140418;27;20052;-57
2023/10/12 15:30:07;;;;;;;7.88;6.53;;;;;;;;;;5136320;27;20053;-55
2023/10/12 15:32:36;;;;;;;7.30;5.90;;;;;;;;;;5133076;27;20539;-57
2023/10/12 15:35:06;;;;;;;7.75;6.40;;;;;;;;;;5127953;27;20052;-56
2023/10/12 15:37:34;;;;;;;8.52;6.20;;;;;;;;;;5137400;27;20052;-55
2023/10/12 15:40:00;;;;;;;10.30;7.10;;;;;;;;;;5134650;27;20465;-55
2023/10/12 15:42:27;;;;;;;9.93;7.18;;;;;;;;;;5138289;27;20051;-55
2023/10/12 15:44:54;;;;;;;8.73;7.10;;;;;;;;;;5148284;27;20081;-56
2023/10/12 15:47:20;;;;;;;9.95;7.63;;;;;;;;;;5149334;27;20123;-57
2023/10/12 15:49:48;;;;;;;11.85;8.50;;;;;;;;;;5137382;27;20560;-56
2023/10/12 15:52:14;;;;;;;10.88;8.60;;;;;;;;;;5122632;27;20514;-57
2023/10/12 15:54:41;;;;;;;12.15;9.27;;;;;;;;;;5138913;27;20078;-55
2023/10/12 15:57:07;;;;;;;12.77;10.15;;;;;;;;;;5123244;27;20048;-55
2023/10/12 15:59:34;;;;;;;10.93;7.53;;;;;;;;;;5133217;27;20195;-56
2023/10/12 16:02:01;;;;;;;15.85;10.40;;;;;;;;;;5118697;27;20510;-55
2023/10/12 16:04:29;;;;;;;12.88;9.23;;;;;;;;;;5132056;27;20109;-56
2023/10/12 16:06:57;;;;;;;11.60;9.90;;;;;;;;;;5129989;27;20044;-52
2023/10/12 16:09:28;;;;;;;16.40;9.70;;;;;;;;;;5122116;27;20480;-57
2023/10/12 16:11:54;;;;;;;14.95;10.57;;;;;;;;;;5118948;27;20166;-58
2023/10/12 16:14:25;;;;;;;16.35;12.65;;;;;;;;;;5114165;27;20060;-55
2023/10/12 16:16:52;;;;;;;16.55;12.38;;;;;;;;;;5125543;27;20052;-55
2023/10/12 16:19:19;;;;;;;19.20;12.45;;;;;;;;;;5125648;27;20464;-56
2023/10/12 16:21:47;;;;;;;14.32;10.85;;;;;;;;;;5125688;27;20055;-55
2023/10/12 16:24:13;;;;;;;17.80;12.70;;;;;;;;;;5109255;27;20044;-54
2023/10/12 16:26:40;;;;;;;19.73;14.18;;;;;;;;;;5109887;27;20052;-57
2023/10/12 16:29:11;;;;;;;18.67;14.38;;;;;;;;;;5113144;27;20055;-53
2023/10/12 16:31:38;;;;;;;16.88;12.32;;;;;;;;;;5108178;27;20109;-57
2023/10/12 16:34:06;;;;;;;19.27;14.30;;;;;;;;;;5124646;27;20595;-56
2023/10/12 16:36:33;;;;;;;16.35;11.98;;;;;;;;;;5122143;27;20051;-55
2023/10/12 16:38:59;;;;;;;23.90;15.57;;;;;;;;;;5121100;27;20544;-54
2023/10/12 16:41:26;;;;;;;25.08;16.00;;;;;;;;;;5131475;27;20559;-57
2023/10/12 16:43:54;;;;;;;20.15;15.68;;;;;;;;;;5126028;27;20335;-56
2023/10/12 16:46:23;;;;;;;24.92;16.35;;;;;;;;;;5124839;27;20585;-53
2023/10/12 16:48:50;;;;;;;18.70;14.00;;;;;;;;;;5124878;27;20060;-57
2023/10/12 16:51:17;;;;;;;28.98;18.95;;;;;;;;;;5126721;27;20055;-57
2023/10/12 16:53:43;;;;;;;32.70;20.17;;;;;;;;;;5125597;27;20692;-57
2023/10/12 16:56:10;;;;;;;27.90;21.50;;;;;;;;;;5125103;27;20530;-57
2023/10/12 16:58:39;;;;;;;27.25;20.13;;;;;;;;;;5123158;27;20468;-57
2023/10/12 17:01:05;;;;;;;28.02;20.55;;;;;;;;;;5124509;27;20064;-55
2023/10/12 17:03:35;;;;;;;33.65;23.00;;;;;;;;;;5123835;27;20051;-56
2023/10/12 17:06:03;;;;;;;28.27;21.00;;;;;;;;;;5122960;27;20627;-57
2023/10/12 17:08:29;;;;;;;23.83;20.63;;;;;;;;;;5125100;27;20501;-54
2023/10/12 17:10:56;;;;;;;36.75;24.80;;;;;;;;;;5125289;27;20048;-56
2023/10/12 17:13:22;;;;;;;30.73;23.85;;;;;;;;;;5124752;27;20105;-55
2023/10/12 17:15:52;;;;;;;35.22;24.45;;;;;;;;;;5122689;27;20064;-56
2023/10/12 17:18:20;;;;;;;40.50;26.13;;;;;;;;;;5104883;27;20477;-54